createdAt,value
2019-03-16T00:00:59.351Z,1006.32
2019-03-16T00:01:59.330Z,1006.28
2019-03-16T00:02:59.303Z,1006.27
2019-03-16T00:03:59.282Z,1006.26
2019-03-16T00:04:59.266Z,1006.26
2019-03-16T00:05:59.243Z,1006.25
2019-03-16T00:06:59.222Z,1006.22
2019-03-16T00:07:59.197Z,1006.22
2019-03-16T00:08:59.180Z,1006.35
2019-03-16T00:09:59.153Z,1006.32
2019-03-16T00:10:59.136Z,1006.24
2019-03-16T00:11:59.276Z,1006.29
2019-03-16T00:12:59.095Z,1006.36
2019-03-16T00:13:59.067Z,1006.41
2019-03-16T00:14:59.050Z,1006.42
2019-03-16T00:15:59.030Z,1006.46
2019-03-16T00:16:59.003Z,1006.5
2019-03-16T00:17:58.982Z,1006.5
2019-03-16T00:18:58.970Z,1006.54
2019-03-16T00:19:58.944Z,1006.63
2019-03-16T00:20:58.917Z,1006.64
2019-03-16T00:21:58.902Z,1006.65
2019-03-16T00:22:58.957Z,1006.67
2019-03-16T00:23:58.857Z,1006.72
2019-03-16T00:24:58.932Z,1006.71
2019-03-16T00:25:58.815Z,1006.73
2019-03-16T00:26:58.787Z,1006.71
2019-03-16T00:27:58.772Z,1006.76
2019-03-16T00:28:58.849Z,1006.76
2019-03-16T00:29:58.728Z,1006.76
2019-03-16T00:30:58.703Z,1006.82
2019-03-16T00:31:58.681Z,1006.81
2019-03-16T00:32:58.664Z,1006.94
2019-03-16T00:33:58.643Z,1006.88
2019-03-16T00:34:58.618Z,1006.9
2019-03-16T00:35:58.596Z,1006.88
2019-03-16T00:36:58.580Z,1006.91
2019-03-16T00:37:58.558Z,1006.91
2019-03-16T00:38:58.560Z,1006.97
2019-03-16T00:39:58.508Z,1006.94
2019-03-16T00:40:58.493Z,1006.84
2019-03-16T00:41:58.467Z,1006.87
2019-03-16T00:42:58.450Z,1006.96
2019-03-16T00:43:58.426Z,1006.89
2019-03-16T00:44:58.406Z,1006.88
2019-03-16T00:45:58.382Z,1006.98
2019-03-16T00:46:58.394Z,1007
2019-03-16T00:47:58.344Z,1007.06
2019-03-16T00:48:58.318Z,1007.06
2019-03-16T00:49:58.294Z,1007.06
2019-03-16T00:50:58.277Z,1007.02
2019-03-16T00:51:58.257Z,1007.07
2019-03-16T00:52:58.232Z,1006.99
2019-03-16T00:53:58.209Z,1007.02
2019-03-16T00:54:58.188Z,1006.99
2019-03-16T00:55:58.178Z,1007.06
2019-03-16T00:56:58.147Z,1006.96
2019-03-16T00:57:58.128Z,1007.04
2019-03-16T00:58:58.102Z,1006.97
2019-03-16T00:59:58.085Z,1007.01
2019-03-16T01:00:58.063Z,1006.87
2019-03-16T01:01:58.042Z,1006.96
2019-03-16T01:02:58.017Z,1006.87
2019-03-16T01:03:57.995Z,1006.91
2019-03-16T01:04:57.978Z,1006.94
2019-03-16T01:05:57.957Z,1006.98
2019-03-16T01:06:57.931Z,1006.97
2019-03-16T01:07:57.914Z,1006.98
2019-03-16T01:08:57.892Z,1006.97
2019-03-16T01:09:57.870Z,1007.01
2019-03-16T01:10:57.849Z,1007.08
2019-03-16T01:11:57.822Z,1007.07
2019-03-16T01:12:57.807Z,1007.07
2019-03-16T01:13:57.781Z,1007.05
2019-03-16T01:14:57.765Z,1007.08
2019-03-16T01:15:57.738Z,1007.07
2019-03-16T01:16:57.716Z,1007.07
2019-03-16T01:17:57.697Z,1007.01
2019-03-16T01:18:57.678Z,1007.14
2019-03-16T01:19:57.656Z,1007.09
2019-03-16T01:20:57.631Z,1007.1
2019-03-16T01:21:57.610Z,1007.18
2019-03-16T01:22:57.594Z,1007.2
2019-03-16T01:23:57.571Z,1007.22
2019-03-16T01:24:57.545Z,1007.26
2019-03-16T01:25:57.524Z,1007.22
2019-03-16T01:26:57.502Z,1007.23
2019-03-16T01:27:57.485Z,1007.22
2019-03-16T01:28:57.459Z,1007.2
2019-03-16T01:29:57.441Z,1007.17
2019-03-16T01:30:57.416Z,1007.17
2019-03-16T01:31:57.399Z,1007.1
2019-03-16T01:32:57.377Z,1007.04
2019-03-16T01:33:57.356Z,1007.09
2019-03-16T01:34:57.331Z,1007.1
2019-03-16T01:35:57.309Z,1007.12
2019-03-16T01:36:57.292Z,1007.17
2019-03-16T01:37:57.337Z,1007.15
2019-03-16T01:38:57.249Z,1007.18
2019-03-16T01:39:57.224Z,1007.26
2019-03-16T01:40:57.205Z,1007.27
2019-03-16T01:41:57.184Z,1007.28
2019-03-16T01:42:57.163Z,1007.28
2019-03-16T01:43:57.140Z,1007.25
2019-03-16T01:44:57.123Z,1007.27
2019-03-16T01:45:57.093Z,1007.26
2019-03-16T01:46:57.078Z,1007.27
2019-03-16T01:47:57.051Z,1007.24
2019-03-16T01:48:57.031Z,1007.24
2019-03-16T01:49:57.009Z,1007.22
2019-03-16T01:50:56.991Z,1007.21
2019-03-16T01:51:56.969Z,1007.22
2019-03-16T01:52:56.955Z,1007.22
2019-03-16T01:53:56.923Z,1007.21
2019-03-16T01:54:56.907Z,1007.19
2019-03-16T01:55:56.886Z,1007.18
2019-03-16T01:56:56.859Z,1007.2
2019-03-16T01:57:56.840Z,1007.22
2019-03-16T01:58:56.816Z,1007.23
2019-03-16T01:59:56.798Z,1007.2
2019-03-16T02:00:56.772Z,1007.22
2019-03-16T02:01:56.764Z,1007.21
2019-03-16T02:02:56.728Z,1007.25
2019-03-16T02:03:56.712Z,1007.22
2019-03-16T02:04:56.691Z,1007.22
2019-03-16T02:05:56.670Z,1007.16
2019-03-16T02:06:56.643Z,1007.19
2019-03-16T02:07:56.620Z,1007.2
2019-03-16T02:08:56.605Z,1007.23
2019-03-16T02:09:56.584Z,1007.22
2019-03-16T02:10:56.562Z,1007.23
2019-03-16T02:11:56.540Z,1007.2
2019-03-16T02:12:56.520Z,1007.12
2019-03-16T02:13:56.497Z,1007.15
2019-03-16T02:14:56.475Z,1007.15
2019-03-16T02:16:09.856Z,1007.13
2019-03-16T02:16:56.433Z,1007.18
2019-03-16T02:17:56.408Z,1007.14
2019-03-16T02:18:56.392Z,1007.11
2019-03-16T02:19:56.365Z,1007.14
2019-03-16T02:20:56.343Z,1007.14
2019-03-16T02:21:56.323Z,1007.04
2019-03-16T02:22:56.304Z,1007.04
2019-03-16T02:23:56.285Z,1007.03
2019-03-16T02:24:56.258Z,1006.97
2019-03-16T02:25:56.237Z,1007
2019-03-16T02:26:56.219Z,1007.06
2019-03-16T02:27:56.198Z,1007
2019-03-16T02:28:56.172Z,1006.99
2019-03-16T02:29:56.153Z,1007
2019-03-16T02:30:56.131Z,1006.96
2019-03-16T02:31:56.113Z,1006.94
2019-03-16T02:33:11.456Z,1006.98
2019-03-16T02:33:56.069Z,1007.02
2019-03-16T02:34:56.047Z,1007
2019-03-16T02:35:56.025Z,1006.97
2019-03-16T02:36:56.004Z,1007.04
2019-03-16T02:37:55.983Z,1006.92
2019-03-16T02:38:55.958Z,1006.96
2019-03-16T02:39:55.936Z,1006.91
2019-03-16T02:40:55.918Z,1006.9
2019-03-16T02:41:55.898Z,1006.84
2019-03-16T02:42:55.872Z,1006.9
2019-03-16T02:43:55.849Z,1006.87
2019-03-16T02:44:55.832Z,1006.89
2019-03-16T02:45:55.814Z,1006.91
2019-03-16T02:46:55.842Z,1006.83
2019-03-16T02:47:55.764Z,1006.79
2019-03-16T02:48:55.750Z,1006.79
2019-03-16T02:49:55.722Z,1006.78
2019-03-16T02:50:55.708Z,1006.8
2019-03-16T02:51:55.686Z,1006.78
2019-03-16T02:52:55.657Z,1006.8
2019-03-16T02:53:55.637Z,1006.74
2019-03-16T02:54:55.620Z,1006.76
2019-03-16T02:55:55.598Z,1006.75
2019-03-16T02:56:55.573Z,1006.73
2019-03-16T02:57:55.549Z,1006.75
2019-03-16T02:58:55.534Z,1006.75
2019-03-16T02:59:55.511Z,1006.78
2019-03-16T03:00:55.490Z,1006.65
2019-03-16T03:01:55.474Z,1006.7
2019-03-16T03:02:55.448Z,1006.67
2019-03-16T03:03:55.421Z,1006.69
2019-03-16T03:04:55.403Z,1006.73
2019-03-16T03:05:55.378Z,1006.65
2019-03-16T03:06:55.361Z,1006.66
2019-03-16T03:07:55.339Z,1006.63
2019-03-16T03:08:55.313Z,1006.69
2019-03-16T03:09:55.294Z,1006.69
2019-03-16T03:10:55.287Z,1006.64
2019-03-16T03:11:55.254Z,1006.66
2019-03-16T03:12:55.228Z,1006.7
2019-03-16T03:13:55.207Z,1006.73
2019-03-16T03:14:55.193Z,1006.77
2019-03-16T03:15:55.167Z,1006.78
2019-03-16T03:16:55.142Z,1006.88
2019-03-16T03:17:55.120Z,1006.84
2019-03-16T03:18:55.101Z,1006.82
2019-03-16T03:19:55.099Z,1006.84
2019-03-16T03:20:55.059Z,1006.86
2019-03-16T03:21:55.040Z,1006.73
2019-03-16T03:22:55.014Z,1006.8
2019-03-16T03:23:54.995Z,1006.77
2019-03-16T03:24:54.975Z,1006.72
2019-03-16T03:25:54.953Z,1006.7
2019-03-16T03:26:54.926Z,1006.63
2019-03-16T03:27:54.906Z,1006.55
2019-03-16T03:28:54.888Z,1006.52
2019-03-16T03:29:57.205Z,1006.52
2019-03-16T03:30:54.856Z,1006.53
2019-03-16T03:31:54.821Z,1006.48
2019-03-16T03:32:55.031Z,1006.5
2019-03-16T03:34:01.253Z,1006.52
2019-03-16T03:34:54.859Z,1006.53
2019-03-16T03:35:54.733Z,1006.62
2019-03-16T03:36:54.728Z,1006.65
2019-03-16T03:37:54.694Z,1006.69
2019-03-16T03:38:54.675Z,1006.69
2019-03-16T03:39:54.647Z,1006.69
2019-03-16T03:40:54.627Z,1006.73
2019-03-16T03:41:54.605Z,1006.71
2019-03-16T03:42:54.590Z,1006.74
2019-03-16T03:43:54.567Z,1006.73
2019-03-16T03:44:54.541Z,1006.72
2019-03-16T03:45:54.527Z,1006.7
2019-03-16T03:46:54.503Z,1006.71
2019-03-16T03:47:54.481Z,1006.77
2019-03-16T03:48:54.456Z,1006.79
2019-03-16T03:49:54.433Z,1006.74
2019-03-16T03:50:54.412Z,1006.78
2019-03-16T03:51:54.396Z,1006.75
2019-03-16T03:52:54.369Z,1006.74
2019-03-16T03:53:54.367Z,1006.63
2019-03-16T03:54:54.326Z,1006.64
2019-03-16T03:55:54.313Z,1006.63
2019-03-16T03:56:54.291Z,1006.6
2019-03-16T03:57:54.317Z,1006.63
2019-03-16T03:58:54.239Z,1006.63
2019-03-16T03:59:54.224Z,1006.6
2019-03-16T04:00:54.203Z,1006.64
2019-03-16T04:01:54.184Z,1006.62
2019-03-16T04:02:54.171Z,1006.59
2019-03-16T04:03:54.134Z,1006.61
2019-03-16T04:04:54.116Z,1006.62
2019-03-16T04:05:54.095Z,1006.6
2019-03-16T04:06:54.072Z,1006.61
2019-03-16T04:07:54.048Z,1006.62
2019-03-16T04:08:54.031Z,1006.65
2019-03-16T04:09:54.004Z,1006.63
2019-03-16T04:10:53.986Z,1006.61
2019-03-16T04:11:53.965Z,1006.65
2019-03-16T04:12:53.956Z,1006.63
2019-03-16T04:13:53.917Z,1006.61
2019-03-16T04:14:53.900Z,1006.63
2019-03-16T04:15:53.880Z,1006.6
2019-03-16T04:16:53.863Z,1006.64
2019-03-16T04:17:53.833Z,1006.61
2019-03-16T04:18:53.814Z,1006.61
2019-03-16T04:19:53.801Z,1006.6
2019-03-16T04:20:53.768Z,1006.56
2019-03-16T04:21:53.745Z,1006.6
2019-03-16T04:22:53.724Z,1006.58
2019-03-16T04:23:53.708Z,1006.54
2019-03-16T04:24:53.682Z,1006.56
2019-03-16T04:25:53.675Z,1006.55
2019-03-16T04:26:53.638Z,1006.53
2019-03-16T04:27:53.622Z,1006.54
2019-03-16T04:28:53.604Z,1006.49
2019-03-16T04:29:53.591Z,1006.54
2019-03-16T04:30:53.554Z,1006.56
2019-03-16T04:31:53.533Z,1006.59
2019-03-16T04:32:53.514Z,1006.59
2019-03-16T04:33:53.582Z,1006.53
2019-03-16T04:34:53.468Z,1006.58
2019-03-16T04:35:53.446Z,1006.58
2019-03-16T04:36:53.428Z,1006.56
2019-03-16T04:37:53.413Z,1006.55
2019-03-16T04:38:53.386Z,1006.54
2019-03-16T04:39:53.359Z,1006.54
2019-03-16T04:40:53.343Z,1006.54
2019-03-16T04:41:53.315Z,1006.53
2019-03-16T04:42:53.301Z,1006.59
2019-03-16T04:43:53.278Z,1006.57
2019-03-16T04:44:53.257Z,1006.56
2019-03-16T04:45:53.235Z,1006.54
2019-03-16T04:46:53.209Z,1006.52
2019-03-16T04:47:53.187Z,1006.55
2019-03-16T04:48:53.170Z,1006.53
2019-03-16T04:49:53.147Z,1006.51
2019-03-16T04:50:53.127Z,1006.49
2019-03-16T04:51:53.101Z,1006.51
2019-03-16T04:52:53.084Z,1006.52
2019-03-16T04:53:53.063Z,1006.53
2019-03-16T04:54:53.041Z,1006.54
2019-03-16T04:55:53.016Z,1006.52
2019-03-16T04:56:53.001Z,1006.54
2019-03-16T04:57:52.973Z,1006.6
2019-03-16T04:58:52.955Z,1006.54
2019-03-16T04:59:52.930Z,1006.56
2019-03-16T05:00:52.908Z,1006.51
2019-03-16T05:01:52.886Z,1006.54
2019-03-16T05:02:52.957Z,1006.49
2019-03-16T05:03:52.849Z,1006.49
2019-03-16T05:04:52.822Z,1006.59
2019-03-16T05:05:52.800Z,1006.6
2019-03-16T05:06:52.783Z,1006.59
2019-03-16T05:07:52.765Z,1006.56
2019-03-16T05:08:52.735Z,1006.58
2019-03-16T05:09:52.714Z,1006.51
2019-03-16T05:10:52.693Z,1006.49
2019-03-16T05:11:52.676Z,1006.48
2019-03-16T05:12:52.649Z,1006.47
2019-03-16T05:13:52.634Z,1006.5
2019-03-16T05:14:52.606Z,1006.48
2019-03-16T05:15:52.591Z,1006.46
2019-03-16T05:16:52.568Z,1006.46
2019-03-16T05:17:52.547Z,1006.52
2019-03-16T05:18:52.521Z,1006.47
2019-03-16T05:19:52.499Z,1006.47
2019-03-16T05:20:52.482Z,1006.44
2019-03-16T05:21:52.461Z,1006.44
2019-03-16T05:22:52.437Z,1006.41
2019-03-16T05:23:52.412Z,1006.35
2019-03-16T05:24:52.396Z,1006.34
2019-03-16T05:25:52.375Z,1006.35
2019-03-16T05:26:52.353Z,1006.42
2019-03-16T05:27:52.328Z,1006.32
2019-03-16T05:28:52.310Z,1006.28
2019-03-16T05:29:52.287Z,1006.42
2019-03-16T05:30:52.268Z,1006.38
2019-03-16T05:31:52.242Z,1006.36
2019-03-16T05:32:52.220Z,1006.36
2019-03-16T05:33:52.212Z,1006.33
2019-03-16T05:34:56.597Z,1006.3
2019-03-16T05:35:52.160Z,1006.32
2019-03-16T05:36:52.136Z,1006.32
2019-03-16T05:37:52.113Z,1006.35
2019-03-16T05:38:52.095Z,1006.3
2019-03-16T05:39:52.074Z,1006.25
2019-03-16T05:40:52.047Z,1006.21
2019-03-16T05:41:52.027Z,1006.32
2019-03-16T05:42:52.005Z,1006.33
2019-03-16T05:43:51.987Z,1006.32
2019-03-16T05:44:51.962Z,1006.37
2019-03-16T05:45:51.944Z,1006.39
2019-03-16T05:46:51.919Z,1006.34
2019-03-16T05:47:51.902Z,1006.25
2019-03-16T05:48:51.881Z,1006.3
2019-03-16T05:49:51.858Z,1006.31
2019-03-16T05:50:51.832Z,1006.3
2019-03-16T05:51:51.811Z,1006.38
2019-03-16T05:52:51.797Z,1006.43
2019-03-16T05:53:51.772Z,1006.4
2019-03-16T05:54:51.747Z,1006.31
2019-03-16T05:55:51.726Z,1006.37
2019-03-16T05:56:51.708Z,1006.33
2019-03-16T05:57:51.687Z,1006.29
2019-03-16T05:58:51.665Z,1006.31
2019-03-16T05:59:51.641Z,1006.26
2019-03-16T06:00:51.622Z,1006.24
2019-03-16T06:01:51.597Z,1006.24
2019-03-16T06:02:51.580Z,1006.27
2019-03-16T06:03:51.555Z,1006.33
2019-03-16T06:04:51.533Z,1006.29
2019-03-16T06:05:51.511Z,1006.23
2019-03-16T06:06:51.495Z,1006.23
2019-03-16T06:07:51.472Z,1006.22
2019-03-16T06:08:51.448Z,1006.2
2019-03-16T06:09:51.425Z,1006.19
2019-03-16T06:10:51.408Z,1006.17
2019-03-16T06:11:51.390Z,1006.18
2019-03-16T06:12:51.360Z,1006.19
2019-03-16T06:13:51.344Z,1006.24
2019-03-16T06:14:51.318Z,1006.27
2019-03-16T06:15:51.300Z,1006.27
2019-03-16T06:16:51.275Z,1006.24
2019-03-16T06:17:51.259Z,1006.27
2019-03-16T06:18:51.231Z,1006.26
2019-03-16T06:19:51.215Z,1006.17
2019-03-16T06:20:51.193Z,1006.19
2019-03-16T06:21:51.172Z,1006.19
2019-03-16T06:22:51.185Z,1006.23
2019-03-16T06:23:51.125Z,1006.24
2019-03-16T06:24:51.108Z,1006.19
2019-03-16T06:25:51.109Z,1006.16
2019-03-16T06:26:51.064Z,1006.21
2019-03-16T06:27:51.053Z,1006.23
2019-03-16T06:28:51.019Z,1006.23
2019-03-16T06:29:50.993Z,1006.13
2019-03-16T06:30:50.974Z,1006.12
2019-03-16T06:31:50.986Z,1006.17
2019-03-16T06:32:50.932Z,1006.17
2019-03-16T06:33:50.926Z,1006.17
2019-03-16T06:34:50.887Z,1006.19
2019-03-16T06:35:50.888Z,1006.18
2019-03-16T06:36:50.849Z,1006.12
2019-03-16T06:37:50.827Z,1006.12
2019-03-16T06:38:50.808Z,1006.13
2019-03-16T06:39:50.828Z,1006.17
2019-03-16T06:40:50.762Z,1006.2
2019-03-16T06:41:50.741Z,1006.15
2019-03-16T06:42:50.716Z,1006.18
2019-03-16T06:43:50.694Z,1006.18
2019-03-16T06:44:50.675Z,1006.2
2019-03-16T06:45:50.655Z,1006.17
2019-03-16T06:46:50.633Z,1006.19
2019-03-16T06:47:50.607Z,1006.16
2019-03-16T06:48:50.591Z,1006.14
2019-03-16T06:49:50.590Z,1006.25
2019-03-16T06:50:50.547Z,1006.23
2019-03-16T06:51:50.521Z,1006.11
2019-03-16T06:52:50.600Z,1006.15
2019-03-16T06:53:50.478Z,1006.11
2019-03-16T06:54:50.463Z,1006.2
2019-03-16T06:55:50.439Z,1006.2
2019-03-16T06:56:50.415Z,1006.17
2019-03-16T06:57:50.392Z,1006.2
2019-03-16T06:58:50.373Z,1006.2
2019-03-16T06:59:50.354Z,1006.19
2019-03-16T07:00:50.328Z,1006.14
2019-03-16T07:01:50.305Z,1006.13
2019-03-16T07:02:50.323Z,1006.08
2019-03-16T07:03:50.323Z,1006.03
2019-03-16T07:04:50.281Z,1006.07
2019-03-16T07:05:50.247Z,1006.06
2019-03-16T07:06:50.203Z,1006.03
2019-03-16T07:07:50.183Z,1006.06
2019-03-16T07:08:50.160Z,1006.03
2019-03-16T07:09:50.137Z,1006.02
2019-03-16T07:10:50.111Z,1005.97
2019-03-16T07:11:50.091Z,1005.97
2019-03-16T07:12:50.077Z,1005.97
2019-03-16T07:13:50.051Z,1005.98
2019-03-16T07:14:50.035Z,1005.94
2019-03-16T07:15:50.005Z,1005.89
2019-03-16T07:17:01.272Z,1005.88
2019-03-16T07:17:49.965Z,1005.84
2019-03-16T07:18:58.504Z,1005.82
2019-03-16T07:19:49.918Z,1005.81
2019-03-16T07:20:49.901Z,1005.78
2019-03-16T07:21:49.875Z,1005.84
2019-03-16T07:22:49.859Z,1005.97
2019-03-16T07:23:49.832Z,1006.03
2019-03-16T07:24:51.651Z,1005.94
2019-03-16T07:25:49.789Z,1005.81
2019-03-16T07:26:49.771Z,1005.83
2019-03-16T07:27:49.751Z,1005.88
2019-03-16T07:28:49.724Z,1005.81
2019-03-16T07:29:49.734Z,1005.8
2019-03-16T07:30:49.693Z,1005.8
2019-03-16T07:31:49.711Z,1005.79
2019-03-16T07:32:49.673Z,1005.8
2019-03-16T07:33:49.646Z,1005.81
2019-03-16T07:34:49.621Z,1005.72
2019-03-16T07:35:49.577Z,1005.74
2019-03-16T07:36:49.551Z,1005.68
2019-03-16T07:37:49.535Z,1005.67
2019-03-16T07:38:49.510Z,1005.68
2019-03-16T07:39:49.492Z,1005.67
2019-03-16T07:40:49.471Z,1005.66
2019-03-16T07:41:49.450Z,1005.63
2019-03-16T07:42:49.423Z,1005.73
2019-03-16T07:43:49.402Z,1005.64
2019-03-16T07:44:49.385Z,1005.66
2019-03-16T07:45:49.364Z,1005.63
2019-03-16T07:46:49.339Z,1005.68
2019-03-16T07:47:49.317Z,1005.71
2019-03-16T07:48:49.298Z,1005.72
2019-03-16T07:49:49.277Z,1005.74
2019-03-16T07:50:49.255Z,1005.69
2019-03-16T07:51:49.230Z,1005.73
2019-03-16T07:52:49.213Z,1005.77
2019-03-16T07:53:49.188Z,1005.75
2019-03-16T07:54:49.169Z,1005.79
2019-03-16T07:55:49.145Z,1005.74
2019-03-16T07:56:49.121Z,1005.69
2019-03-16T07:57:49.105Z,1005.71
2019-03-16T07:58:49.083Z,1005.81
2019-03-16T07:59:49.063Z,1005.76
2019-03-16T08:00:49.038Z,1005.71
2019-03-16T08:01:49.013Z,1005.64
2019-03-16T08:02:48.998Z,1005.71
2019-03-16T08:03:48.978Z,1005.75
2019-03-16T08:04:48.978Z,1005.93
2019-03-16T08:05:48.928Z,1005.79
2019-03-16T08:06:48.908Z,1005.86
2019-03-16T08:07:48.891Z,1005.89
2019-03-16T08:08:48.865Z,1005.9
2019-03-16T08:09:48.847Z,1005.93
2019-03-16T08:10:48.821Z,1005.85
2019-03-16T08:11:48.803Z,1005.92
2019-03-16T08:12:48.782Z,1005.91
2019-03-16T08:13:48.761Z,1005.93
2019-03-16T08:14:48.737Z,1005.93
2019-03-16T08:15:48.712Z,1005.94
2019-03-16T08:16:48.696Z,1005.91
2019-03-16T08:17:48.770Z,1005.88
2019-03-16T08:18:48.749Z,1005.91
2019-03-16T08:19:48.627Z,1005.95
2019-03-16T08:20:48.610Z,1006.05
2019-03-16T08:21:48.589Z,1006.01
2019-03-16T08:22:48.567Z,1006.04
2019-03-16T08:23:48.541Z,1006.05
2019-03-16T08:24:48.524Z,1006.04
2019-03-16T08:25:48.498Z,1006.1
2019-03-16T08:26:48.480Z,1006.06
2019-03-16T08:27:53.851Z,1006.08
2019-03-16T08:28:48.435Z,1006.07
2019-03-16T08:29:48.412Z,1005.96
2019-03-16T08:30:48.395Z,1005.97
2019-03-16T08:31:48.374Z,1005.97
2019-03-16T08:32:48.348Z,1005.98
2019-03-16T08:33:48.326Z,1005.98
2019-03-16T08:34:48.309Z,1006.02
2019-03-16T08:35:48.288Z,1005.97
2019-03-16T08:36:48.262Z,1006.09
2019-03-16T08:37:48.239Z,1006
2019-03-16T08:38:48.219Z,1005.99
2019-03-16T08:39:48.201Z,1005.96
2019-03-16T08:40:48.179Z,1005.99
2019-03-16T08:41:48.160Z,1006.09
2019-03-16T08:42:48.151Z,1005.97
2019-03-16T08:43:48.120Z,1006.02
2019-03-16T08:44:48.094Z,1006.12
2019-03-16T08:45:48.073Z,1006.06
2019-03-16T08:46:48.047Z,1006.08
2019-03-16T08:47:48.027Z,1006.06
2019-03-16T08:48:48.008Z,1006.13
2019-03-16T08:49:47.986Z,1006.05
2019-03-16T08:50:47.961Z,1006.1
2019-03-16T08:51:47.941Z,1006.07
2019-03-16T08:52:47.922Z,1006.05
2019-03-16T08:53:47.902Z,1006.07
2019-03-16T08:54:47.880Z,1006.1
2019-03-16T08:55:47.854Z,1006.08
2019-03-16T08:56:47.835Z,1006.03
2019-03-16T08:57:47.811Z,1006.06
2019-03-16T08:58:47.794Z,1005.89
2019-03-16T08:59:47.766Z,1005.97
2019-03-16T09:00:47.748Z,1005.96
2019-03-16T09:01:47.858Z,1005.96
2019-03-16T09:02:47.707Z,1005.89
2019-03-16T09:03:47.686Z,1005.94
2019-03-16T09:04:47.660Z,1005.89
2019-03-16T09:05:47.639Z,1005.87
2019-03-16T09:06:47.621Z,1005.87
2019-03-16T09:07:47.600Z,1005.86
2019-03-16T09:08:47.574Z,1005.8
2019-03-16T09:09:47.552Z,1005.85
2019-03-16T09:10:47.530Z,1005.85
2019-03-16T09:11:47.514Z,1005.82
2019-03-16T09:12:54.638Z,1005.72
2019-03-16T09:13:47.472Z,1005.77
2019-03-16T09:14:47.447Z,1005.76
2019-03-16T09:15:47.432Z,1005.69
2019-03-16T09:16:47.408Z,1005.66
2019-03-16T09:17:47.386Z,1005.66
2019-03-16T09:18:47.365Z,1005.64
2019-03-16T09:19:47.340Z,1005.65
2019-03-16T09:20:47.322Z,1005.61
2019-03-16T09:21:47.300Z,1005.68
2019-03-16T09:22:47.274Z,1005.49
2019-03-16T09:23:47.253Z,1005.53
2019-03-16T09:24:47.235Z,1005.58
2019-03-16T09:25:47.215Z,1005.57
2019-03-16T09:26:47.193Z,1005.47
2019-03-16T09:27:47.167Z,1005.5
2019-03-16T09:28:59.303Z,1005.49
2019-03-16T09:29:47.124Z,1005.45
2019-03-16T09:30:47.109Z,1005.5
2019-03-16T09:31:47.082Z,1005.44
2019-03-16T09:32:47.059Z,1005.52
2019-03-16T09:33:47.040Z,1005.56
2019-03-16T09:34:47.033Z,1005.62
2019-03-16T09:35:47.000Z,1005.57
2019-03-16T09:36:46.976Z,1005.61
2019-03-16T09:37:46.953Z,1005.62
2019-03-16T09:38:46.937Z,1005.61
2019-03-16T09:39:46.914Z,1005.62
2019-03-16T09:40:46.888Z,1005.51
2019-03-16T09:41:46.867Z,1005.62
2019-03-16T09:42:46.851Z,1005.6
2019-03-16T09:43:46.828Z,1005.63
2019-03-16T09:44:46.802Z,1005.56
2019-03-16T09:45:46.784Z,1005.61
2019-03-16T09:46:46.759Z,1005.6
2019-03-16T09:47:46.742Z,1005.64
2019-03-16T09:48:46.724Z,1005.66
2019-03-16T09:49:46.700Z,1005.57
2019-03-16T09:50:46.677Z,1005.54
2019-03-16T09:51:46.656Z,1005.66
2019-03-16T09:52:46.633Z,1005.56
2019-03-16T09:53:46.609Z,1005.59
2019-03-16T09:54:46.592Z,1005.66
2019-03-16T09:55:46.570Z,1005.55
2019-03-16T09:56:46.550Z,1005.62
2019-03-16T09:57:46.523Z,1005.62
2019-03-16T09:58:46.503Z,1005.55
2019-03-16T09:59:46.485Z,1005.63
2019-03-16T10:00:46.459Z,1005.53
2019-03-16T10:01:46.442Z,1005.57
2019-03-16T10:02:46.416Z,1005.59
2019-03-16T10:03:46.400Z,1005.52
2019-03-16T10:04:46.378Z,1005.42
2019-03-16T10:05:46.356Z,1005.39
2019-03-16T10:06:46.330Z,1005.42
2019-03-16T10:07:46.312Z,1005.38
2019-03-16T10:08:46.295Z,1005.34
2019-03-16T10:09:46.276Z,1005.35
2019-03-16T10:10:46.245Z,1005.31
2019-03-16T10:11:46.224Z,1005.33
2019-03-16T10:12:46.208Z,1005.33
2019-03-16T10:13:46.186Z,1005.31
2019-03-16T10:14:46.164Z,1005.29
2019-03-16T10:15:46.138Z,1005.29
2019-03-16T10:16:46.120Z,1005.26
2019-03-16T10:17:46.105Z,1005.24
2019-03-16T10:18:46.078Z,1005.28
2019-03-16T10:19:46.053Z,1005.24
2019-03-16T10:20:46.032Z,1005.22
2019-03-16T10:21:46.010Z,1005.24
2019-03-16T10:22:45.992Z,1005.23
2019-03-16T10:23:45.976Z,1005.18
2019-03-16T10:24:45.945Z,1005.18
2019-03-16T10:25:45.925Z,1005.14
2019-03-16T10:26:45.907Z,1005.23
2019-03-16T10:27:45.886Z,1005.28
2019-03-16T10:28:45.860Z,1005.33
2019-03-16T10:29:45.838Z,1005.24
2019-03-16T10:30:45.819Z,1005.25
2019-03-16T10:31:45.799Z,1005.15
2019-03-16T10:32:45.773Z,1005.18
2019-03-16T10:33:45.758Z,1005.14
2019-03-16T10:34:45.730Z,1005.12
2019-03-16T10:35:45.713Z,1005.18
2019-03-16T10:36:45.693Z,1005.13
2019-03-16T10:37:45.671Z,1005.06
2019-03-16T10:38:45.646Z,1005.05
2019-03-16T10:39:45.623Z,1005.13
2019-03-16T10:40:45.607Z,1005.03
2019-03-16T10:41:45.585Z,1005.03
2019-03-16T10:42:45.560Z,1005.01
2019-03-16T10:43:45.539Z,1005.07
2019-03-16T10:44:45.521Z,1005.03
2019-03-16T10:45:45.500Z,1005.14
2019-03-16T10:46:45.479Z,1004.96
2019-03-16T10:47:45.453Z,1004.93
2019-03-16T10:48:45.436Z,1005.04
2019-03-16T10:49:45.411Z,1005
2019-03-16T10:50:45.394Z,1005.13
2019-03-16T10:51:45.369Z,1005.02
2019-03-16T10:52:45.349Z,1005.08
2019-03-16T10:53:45.325Z,1005.11
2019-03-16T10:54:45.309Z,1005.13
2019-03-16T10:55:45.287Z,1005.13
2019-03-16T10:56:45.261Z,1005.17
2019-03-16T10:57:45.240Z,1005.2
2019-03-16T10:58:55.915Z,1005.2
2019-03-16T10:59:45.201Z,1005.14
2019-03-16T11:00:45.176Z,1005.1
2019-03-16T11:01:45.155Z,1005.08
2019-03-16T11:02:45.134Z,1005.08
2019-03-16T11:03:45.117Z,1005.04
2019-03-16T11:04:45.089Z,1005.1
2019-03-16T11:05:45.076Z,1004.98
2019-03-16T11:06:45.047Z,1005.11
2019-03-16T11:07:45.031Z,1004.97
2019-03-16T11:08:45.009Z,1005.08
2019-03-16T11:09:44.988Z,1004.98
2019-03-16T11:10:44.962Z,1005.01
2019-03-16T11:11:44.966Z,1005.02
2019-03-16T11:12:44.923Z,1005.05
2019-03-16T11:13:44.903Z,1005.07
2019-03-16T11:14:44.876Z,1005.09
2019-03-16T11:15:44.862Z,1005.04
2019-03-16T11:16:44.839Z,1005.05
2019-03-16T11:17:44.826Z,1005.04
2019-03-16T11:18:44.796Z,1004.93
2019-03-16T11:19:44.769Z,1005.12
2019-03-16T11:20:44.754Z,1005.07
2019-03-16T11:21:44.727Z,1005.11
2019-03-16T11:22:44.709Z,1005.11
2019-03-16T11:23:44.684Z,1005.13
2019-03-16T11:24:44.695Z,1005.04
2019-03-16T11:25:44.665Z,1005.14
2019-03-16T11:26:44.625Z,1005.11
2019-03-16T11:27:44.602Z,1005.15
2019-03-16T11:28:44.583Z,1005.19
2019-03-16T11:29:44.557Z,1005.12
2019-03-16T11:30:44.540Z,1005.04
2019-03-16T11:31:44.520Z,1005.08
2019-03-16T11:32:44.515Z,1005.06
2019-03-16T11:33:44.471Z,1005.05
2019-03-16T11:34:44.513Z,1005.12
2019-03-16T11:35:44.436Z,1005.04
2019-03-16T11:36:44.407Z,1005.01
2019-03-16T11:37:44.390Z,1005.04
2019-03-16T11:38:44.364Z,1005.04
2019-03-16T11:39:44.348Z,1005.17
2019-03-16T11:40:44.325Z,1005.14
2019-03-16T11:41:44.304Z,1005.06
2019-03-16T11:42:44.278Z,1005.02
2019-03-16T11:43:44.256Z,1004.99
2019-03-16T11:44:44.243Z,1005.02
2019-03-16T11:45:44.220Z,1005.04
2019-03-16T11:46:44.194Z,1005.04
2019-03-16T11:47:44.172Z,1005.01
2019-03-16T11:48:44.154Z,1005.02
2019-03-16T11:49:44.135Z,1004.99
2019-03-16T11:50:44.151Z,1004.99
2019-03-16T11:51:44.085Z,1005
2019-03-16T11:52:44.069Z,1005.01
2019-03-16T11:53:44.044Z,1005.06
2019-03-16T11:54:44.026Z,1005.05
2019-03-16T11:55:44.001Z,1004.97
2019-03-16T11:56:43.980Z,1005.1
2019-03-16T11:57:43.958Z,1005.09
2019-03-16T11:58:43.941Z,1005.02
2019-03-16T11:59:43.920Z,1005.01
2019-03-16T12:00:43.895Z,1005.05
2019-03-16T12:01:43.873Z,1005.02
2019-03-16T12:02:43.856Z,1005.01
2019-03-16T12:03:43.836Z,1005
2019-03-16T12:04:43.808Z,1004.95
2019-03-16T12:05:43.790Z,1004.91
2019-03-16T12:06:43.766Z,1004.87
2019-03-16T12:07:43.749Z,1004.91
2019-03-16T12:08:43.724Z,1004.96